Sandborn, Indiana
Current Conditions -  °F | °C
As of 1:35 PM on Tuesday 21 Oct 2014 (Local Time) from KDCY Reporting Station
Broken Clouds Broken Clouds  
Wind Chill: 60°   Ceiling: 4700
Heat Index: 60°   Visibility: 10mi
Dew Point: 43°   Wind: 10mph
Humidity: 53%   Direction: 330°NNW
Pressure: 30.08"   Gusts: NA
Location:  38.9°N, 87.19°W
Report Text: KDCY 211835Z AUTO 33009KT 10SM BKN047 16/06 A3008 RMK AO2 T01550059
Loading
Personal Weather Stations






























Interactive Weather Map
Tropical Storm Tracking
New forecast layout! Learn more

10-Day Weather Forecast

Advertisements
Track Severe Weather on mobile